Time;durP1;ratioP1;P1;durP2;ratioP2;P2;SDS_P1;SDS_P2;PMS_P1;PMS_P2;Temp;Humidity;BMP_temperature;BMP_pressure;BME280_temperature;BME280_humidity;BME280_pressure;Samples;Min_cycle;Max_cycle;Signal;HPM_P1;HPM_P2
2021/08/12 00:00:50;;;;;;;3.22;1.50;;;15.70;99.90;;;;;;5096581;28;20396;-77
2021/08/12 00:03:16;;;;;;;3.88;2.15;;;15.70;99.90;;;;;;5096118;28;20008;-77
2021/08/12 00:05:41;;;;;;;3.08;1.90;;;15.70;99.90;;;;;;5077882;28;20024;-77
2021/08/12 00:08:07;;;;;;;5.63;1.60;;;15.60;99.90;;;;;;5077790;28;20390;-77
2021/08/12 00:10:32;;;;;;;8.43;1.90;;;15.60;99.90;;;;;;5077906;28;20067;-77
2021/08/12 00:12:58;;;;;;;2.95;1.85;;;15.60;99.90;;;;;;5078176;28;20119;-79
2021/08/12 00:15:23;;;;;;;4.78;2.30;;;15.60;99.90;;;;;;5095959;28;20028;-77
2021/08/12 00:17:49;;;;;;;4.30;1.60;;;15.60;99.90;;;;;;5095934;28;20028;-78
2021/08/12 00:20:15;;;;;;;5.50;1.92;;;15.60;99.90;;;;;;5076655;28;20056;-76
2021/08/12 00:22:41;;;;;;;6.80;2.42;;;15.60;99.90;;;;;;5077320;28;20052;-76
2021/08/12 00:25:07;;;;;;;6.63;2.13;;;15.60;99.90;;;;;;5095504;28;20027;-76
2021/08/12 00:27:33;;;;;;;7.20;2.28;;;15.50;99.90;;;;;;5095397;28;20028;-76
2021/08/12 00:29:58;;;;;;;5.43;2.40;;;15.50;99.90;;;;;;5095559;28;20085;-76
2021/08/12 00:32:24;;;;;;;3.50;2.17;;;15.50;99.90;;;;;;5077180;28;20029;-76
2021/08/12 00:34:49;;;;;;;6.00;2.28;;;15.40;99.90;;;;;;5095311;28;20043;-77
2021/08/12 00:37:15;;;;;;;5.55;2.60;;;15.40;99.90;;;;;;5095746;28;20378;-77
2021/08/12 00:39:40;;;;;;;4.53;2.15;;;15.40;99.90;;;;;;5095943;28;20028;-77
2021/08/12 00:42:06;;;;;;;3.15;2.05;;;15.40;99.90;;;;;;5078201;28;20040;-78
2021/08/12 00:44:32;;;;;;;6.22;3.35;;;15.40;99.90;;;;;;5078130;28;20043;-78
2021/08/12 00:46:57;;;;;;;7.13;2.90;;;15.30;99.90;;;;;;5096207;28;20462;-78
2021/08/12 00:49:23;;;;;;;4.60;2.38;;;15.30;99.90;;;;;;5096672;28;20024;-78
2021/08/12 00:51:49;;;;;;;4.28;2.00;;;15.30;99.90;;;;;;5095443;28;20107;-76
2021/08/12 00:54:15;;;;;;;5.07;2.30;;;15.30;99.90;;;;;;5076823;28;20501;-76
2021/08/12 00:56:42;;;;;;;4.57;2.47;;;15.30;99.90;;;;;;5095494;28;20031;-76
2021/08/12 00:59:08;;;;;;;4.78;2.60;;;15.20;99.90;;;;;;5076632;28;20413;-76
2021/08/12 01:01:33;;;;;;;8.05;2.88;;;15.20;99.90;;;;;;5094809;28;20016;-76
2021/08/12 01:03:59;;;;;;;5.60;2.47;;;15.20;99.90;;;;;;5076651;28;20051;-76
2021/08/12 01:06:30;;;;;;;4.20;2.47;;;15.10;99.90;;;;;;5095295;28;20516;-76
2021/08/12 01:09:09;;;;;;;4.95;2.83;;;15.20;99.90;;;;;;5094950;28;20103;-78
2021/08/12 01:11:45;;;;;;;8.60;3.20;;;15.10;99.90;;;;;;5077891;28;20020;-78
2021/08/12 01:14:26;;;;;;;5.63;3.03;;;15.10;99.90;;;;;;5095900;28;20048;-78
2021/08/12 01:17:00;;;;;;;5.65;3.58;;;15.10;99.90;;;;;;5096202;28;20554;-78
2021/08/12 01:19:47;;;;;;;7.18;3.10;;;15.10;99.90;;;;;;5095894;28;20020;-78
2021/08/12 01:22:19;;;;;;;7.05;2.83;;;15.10;99.90;;;;;;5076565;28;20062;-75
2021/08/12 01:24:49;;;;;;;4.85;2.58;;;15.10;99.90;;;;;;5094510;28;20047;-75
2021/08/12 01:27:16;;;;;;;6.97;2.88;;;15.10;99.90;;;;;;5094339;28;20106;-76
2021/08/12 01:30:08;;;;;;;9.55;2.90;;;15.10;99.90;;;;;;5094863;28;20020;-79
2021/08/12 01:33:00;;;;;;;6.40;3.42;;;15.10;99.90;;;;;;5076058;28;20016;-79
2021/08/12 01:35:29;;;;;;;6.63;3.55;;;15.10;99.90;;;;;;5076321;28;20039;-79
2021/08/12 01:38:02;;;;;;;9.23;3.45;;;15.10;99.90;;;;;;5076364;28;20387;-79
2021/08/12 01:40:32;;;;;;;7.05;3.40;;;15.10;99.90;;;;;;5077173;28;20057;-78
2021/08/12 01:43:00;;;;;;;7.90;3.45;;;15.10;99.90;;;;;;5076952;28;20018;-79
2021/08/12 01:45:27;;;;;;;11.43;3.65;;;15.10;99.90;;;;;;5076762;28;20020;-77
2021/08/12 01:47:53;;;;;;;8.38;4.00;;;15.10;99.90;;;;;;5094241;28;20028;-76
2021/08/12 01:50:20;;;;;;;9.05;4.05;;;15.10;99.90;;;;;;5075881;28;20028;-76
2021/08/12 01:52:48;;;;;;;8.85;4.00;;;15.10;99.90;;;;;;5094341;28;20416;-76
2021/08/12 01:55:20;;;;;;;8.13;4.93;;;15.10;99.90;;;;;;5075794;28;20058;-77
2021/08/12 01:57:46;;;;;;;10.45;4.82;;;15.10;99.90;;;;;;5094043;28;20107;-76
2021/08/12 02:00:13;;;;;;;7.70;4.38;;;15.20;99.90;;;;;;5093981;28;20104;-76
2021/08/12 02:02:41;;;;;;;8.88;4.25;;;15.20;99.90;;;;;;5075776;28;20024;-76
2021/08/12 02:05:10;;;;;;;9.85;4.72;;;15.40;99.90;;;;;;5075872;28;20370;-76
2021/08/12 02:07:37;;;;;;;9.85;4.28;;;15.20;99.90;;;;;;5094251;28;20020;-76
2021/08/12 02:10:03;;;;;;;11.93;5.15;;;15.20;99.90;;;;;;5094270;28;20024;-77
2021/08/12 02:12:29;;;;;;;11.07;5.65;;;15.20;99.90;;;;;;5076999;28;20032;-79
2021/08/12 02:14:55;;;;;;;14.18;5.75;;;15.30;99.90;;;;;;5094708;28;20022;-77
2021/08/12 02:17:20;;;;;;;11.95;5.82;;;15.30;99.90;;;;;;5075863;28;20485;-77
2021/08/12 02:19:46;;;;;;;11.73;4.80;;;15.30;99.90;;;;;;5075877;28;20024;-77
2021/08/12 02:22:26;;;;;;;12.43;6.18;;;15.40;99.90;;;;;;5094090;28;20024;-78
2021/08/12 02:25:05;;;;;;;13.05;5.68;;;15.30;99.90;;;;;;5094739;28;20020;-78
2021/08/12 02:27:30;;;;;;;13.80;6.25;;;15.30;99.90;;;;;;5076166;28;20069;-78
2021/08/12 02:29:56;;;;;;;15.00;7.13;;;15.30;99.90;;;;;;5075308;28;20032;-76
2021/08/12 02:32:28;;;;;;;19.75;6.90;;;15.30;99.90;;;;;;5075496;28;20111;-76
2021/08/12 02:34:56;;;;;;;17.92;8.05;;;15.40;99.90;;;;;;5093940;28;20086;-79
2021/08/12 02:37:23;;;;;;;15.70;7.18;;;15.30;99.90;;;;;;5075789;28;20016;-79
2021/08/12 02:39:50;;;;;;;18.00;7.40;;;15.40;99.90;;;;;;5093913;28;20038;-79
2021/08/12 02:42:16;;;;;;;14.10;7.38;;;15.30;99.90;;;;;;5093436;28;20501;-76
2021/08/12 02:44:43;;;;;;;16.23;7.25;;;15.30;99.90;;;;;;5096378;28;20035;-77
2021/08/12 02:47:10;;;;;;;17.52;9.18;;;15.30;99.90;;;;;;5097975;28;20537;-79
2021/08/12 02:49:39;;;;;;;16.35;7.78;;;15.30;99.90;;;;;;5079660;28;20023;-78
2021/08/12 02:52:07;;;;;;;19.33;7.22;;;15.40;99.90;;;;;;5097777;28;20103;-79
2021/08/12 02:54:34;;;;;;;14.70;7.50;;;15.30;99.90;;;;;;5079495;28;20107;-79
2021/08/12 02:57:00;;;;;;;18.55;8.00;;;15.30;99.90;;;;;;5098036;28;20027;-79
2021/08/12 02:59:26;;;;;;;17.08;7.93;;;15.60;99.90;;;;;;5097637;28;20109;-77
2021/08/12 03:01:53;;;;;;;16.02;7.28;;;15.30;99.90;;;;;;5097600;28;20095;-77
2021/08/12 03:04:20;;;;;;;14.40;7.97;;;15.30;99.90;;;;;;5079143;28;20370;-77
2021/08/12 03:06:47;;;;;;;14.80;7.50;;;15.20;99.90;;;;;;5079036;28;20028;-77
2021/08/12 03:09:14;;;;;;;16.50;7.55;;;15.20;99.90;;;;;;5097704;28;20024;-77
2021/08/12 03:11:41;;;;;;;10.98;6.50;;;15.10;99.90;;;;;;5078993;28;20028;-77
2021/08/12 03:14:06;;;;;;;14.00;6.75;;;15.10;99.90;;;;;;5097927;28;20070;-78
2021/08/12 03:16:32;;;;;;;11.40;6.20;;;15.10;99.90;;;;;;5097159;28;20431;-76
2021/08/12 03:18:58;;;;;;;13.77;6.38;;;15.00;99.90;;;;;;5097084;28;20024;-76
2021/08/12 03:21:24;;;;;;;18.33;6.75;;;15.00;99.90;;;;;;5078826;28;20023;-77
2021/08/12 03:23:50;;;;;;;13.35;6.15;;;14.90;99.90;;;;;;5097703;28;20031;-77
2021/08/12 03:26:17;;;;;;;13.60;7.25;;;14.90;99.90;;;;;;5078816;28;20084;-76
2021/08/12 03:28:43;;;;;;;12.68;6.75;;;14.90;99.90;;;;;;5097019;28;20483;-79
2021/08/12 03:31:08;;;;;;;12.90;6.60;;;14.80;99.90;;;;;;5078586;28;20059;-77
2021/08/12 03:33:34;;;;;;;15.00;7.43;;;14.80;99.90;;;;;;5097293;28;20077;-77
2021/08/12 03:36:00;;;;;;;15.20;7.43;;;14.80;99.90;;;;;;5097494;28;20043;-79
2021/08/12 03:38:27;;;;;;;14.95;7.13;;;14.80;99.90;;;;;;5096755;28;20033;-79
2021/08/12 03:40:53;;;;;;;17.92;8.27;;;14.80;99.90;;;;;;5078350;28;20020;-77
2021/08/12 03:43:18;;;;;;;16.67;7.80;;;14.80;99.90;;;;;;5096914;28;20032;-79
2021/08/12 03:45:45;;;;;;;15.75;7.68;;;14.80;99.90;;;;;;5097283;28;20016;-79
2021/08/12 03:48:10;;;;;;;16.02;8.02;;;14.80;99.90;;;;;;5078842;28;20020;-78
2021/08/12 03:50:36;;;;;;;17.67;7.68;;;14.80;99.90;;;;;;5078420;28;20046;-78
2021/08/12 03:53:02;;;;;;;14.23;7.38;;;14.80;99.90;;;;;;5078412;28;20016;-77
2021/08/12 03:55:28;;;;;;;17.95;8.95;;;14.80;99.90;;;;;;5096266;28;20084;-77
2021/08/12 03:57:53;;;;;;;16.02;8.32;;;14.70;99.90;;;;;;5096778;28;20028;-79
2021/08/12 04:00:19;;;;;;;15.13;8.57;;;14.70;99.90;;;;;;5078796;28;20490;-79
2021/08/12 04:02:45;;;;;;;18.02;9.25;;;14.80;99.90;;;;;;5096569;28;20016;-79
2021/08/12 04:05:11;;;;;;;16.75;8.93;;;14.70;99.90;;;;;;5078366;28;20028;-79
2021/08/12 04:07:36;;;;;;;19.70;9.07;;;14.80;99.90;;;;;;5097795;28;20022;-79
2021/08/12 04:10:03;;;;;;;19.75;8.95;;;14.80;99.90;;;;;;5097175;28;20191;-79
2021/08/12 04:12:29;;;;;;;17.10;8.95;;;14.80;99.90;;;;;;5079219;28;20020;-79
2021/08/12 04:14:55;;;;;;;21.90;10.73;;;14.80;99.90;;;;;;5079057;28;20065;-79
2021/08/12 04:17:20;;;;;;;17.65;8.70;;;14.80;99.90;;;;;;5079389;28;20024;-79
2021/08/12 04:19:46;;;;;;;20.20;10.32;;;14.80;99.90;;;;;;5097180;28;20028;-79
2021/08/12 04:22:11;;;;;;;17.35;9.63;;;14.80;99.90;;;;;;5079414;28;20023;-79
2021/08/12 04:24:37;;;;;;;16.98;10.07;;;14.80;99.90;;;;;;5078097;28;20020;-79
2021/08/12 04:27:02;;;;;;;18.48;10.57;;;15.70;99.90;;;;;;5096122;28;20407;-79
2021/08/12 04:29:28;;;;;;;17.63;9.13;;;14.80;99.90;;;;;;5078077;28;20115;-79
2021/08/12 04:31:54;;;;;;;18.13;9.00;;;14.80;99.90;;;;;;5077942;28;20043;-79
2021/08/12 04:34:19;;;;;;;18.00;8.90;;;14.90;99.90;;;;;;5077858;28;20012;-79
2021/08/12 04:36:45;;;;;;;18.58;9.90;;;14.90;99.90;;;;;;5077718;28;20431;-79
2021/08/12 04:39:10;;;;;;;19.50;9.27;;;14.80;99.90;;;;;;5097280;28;20024;-79
2021/08/12 04:41:36;;;;;;;17.05;9.25;;;14.90;99.90;;;;;;5096425;28;20074;-79
2021/08/12 04:44:02;;;;;;;18.80;9.18;;;14.90;99.90;;;;;;5077813;28;20058;-79
2021/08/12 04:46:28;;;;;;;19.17;10.23;;;14.90;99.90;;;;;;5077646;28;20050;-77
2021/08/12 04:48:53;;;;;;;18.95;9.57;;;14.90;99.90;;;;;;5077393;28;20031;-76
2021/08/12 04:51:19;;;;;;;17.63;8.73;;;14.90;99.90;;;;;;5095322;28;20051;-76
2021/08/12 04:53:45;;;;;;;16.70;8.23;;;14.90;99.90;;;;;;5095286;28;20020;-76
2021/08/12 04:56:11;;;;;;;18.35;8.15;;;15.00;99.90;;;;;;5077527;28;20028;-79
2021/08/12 04:58:36;;;;;;;22.20;9.88;;;15.00;99.90;;;;;;5095491;28;20032;-79
2021/08/12 05:01:02;;;;;;;17.40;9.35;;;15.00;99.90;;;;;;5077519;28;20437;-79
2021/08/12 05:03:28;;;;;;;18.17;9.25;;;15.00;99.90;;;;;;5077422;28;20024;-79
2021/08/12 05:06:04;;;;;;;16.80;9.27;;;15.00;99.90;;;;;;5076822;28;20056;-79
2021/08/12 05:08:30;;;;;;;18.33;8.02;;;15.10;99.90;;;;;;5096079;28;20024;-79
2021/08/12 05:10:55;;;;;;;15.73;8.35;;;15.20;99.90;;;;;;5077215;28;20024;-79
2021/08/12 05:13:21;;;;;;;17.88;9.35;;;15.30;99.90;;;;;;5077164;28;20366;-79
2021/08/12 05:15:47;;;;;;;16.00;9.13;;;15.30;99.90;;;;;;5095154;28;20435;-79
2021/08/12 05:18:13;;;;;;;18.30;8.82;;;15.40;99.90;;;;;;5076783;28;20027;-79
2021/08/12 05:20:38;;;;;;;18.85;9.02;;;15.50;99.90;;;;;;5076995;28;20024;-79
2021/08/12 05:23:04;;;;;;;18.23;9.55;;;15.50;99.90;;;;;;5095207;28;20021;-79
2021/08/12 05:25:30;;;;;;;15.27;7.72;;;15.60;99.90;;;;;;5076966;28;20016;-79
2021/08/12 05:27:56;;;;;;;17.58;8.80;;;15.70;99.90;;;;;;5076404;28;20024;-79
2021/08/12 05:30:22;;;;;;;18.67;9.23;;;15.70;99.90;;;;;;5076461;28;20065;-79
2021/08/12 05:32:48;;;;;;;17.05;9.20;;;15.80;99.90;;;;;;5076491;28;20028;-75
2021/08/12 05:35:13;;;;;;;17.63;8.90;;;15.80;99.90;;;;;;5094243;28;20024;-75
2021/08/12 05:37:39;;;;;;;15.27;7.47;;;15.90;99.90;;;;;;5094284;28;20027;-77
2021/08/12 05:40:05;;;;;;;18.77;8.27;;;16.00;99.90;;;;;;5094328;28;20493;-77
2021/08/12 05:42:31;;;;;;;15.50;8.15;;;16.10;99.90;;;;;;5076256;28;20448;-76
2021/08/12 05:44:56;;;;;;;17.05;7.40;;;16.20;99.90;;;;;;5094467;28;20043;-77
2021/08/12 05:47:22;;;;;;;16.63;8.07;;;16.20;99.90;;;;;;5094265;28;20538;-77
2021/08/12 05:49:47;;;;;;;16.73;8.07;;;16.30;99.90;;;;;;5077310;28;20031;-77
2021/08/12 05:52:13;;;;;;;15.00;7.50;;;16.40;99.90;;;;;;5094216;28;20526;-77
2021/08/12 05:54:38;;;;;;;13.90;7.40;;;16.50;99.90;;;;;;5094964;28;20030;-79
2021/08/12 05:57:04;;;;;;;14.68;7.97;;;16.50;99.90;;;;;;5094706;28;20024;-79
2021/08/12 05:59:30;;;;;;;14.50;7.60;;;16.50;99.90;;;;;;5094065;28;20486;-77
2021/08/12 06:01:55;;;;;;;14.50;7.90;;;16.50;99.90;;;;;;5076164;28;20358;-77
2021/08/12 06:04:21;;;;;;;15.48;7.70;;;16.50;99.90;;;;;;5093855;28;20094;-77
2021/08/12 06:06:46;;;;;;;14.50;7.22;;;16.50;99.90;;;;;;5094066;28;20012;-79
2021/08/12 06:09:12;;;;;;;12.27;7.03;;;16.50;99.90;;;;;;5093899;28;20042;-77
2021/08/12 06:11:37;;;;;;;15.13;6.47;;;16.50;99.90;;;;;;5075594;28;20034;-77
2021/08/12 06:14:03;;;;;;;15.77;6.22;;;16.50;99.90;;;;;;5093560;28;20050;-76
2021/08/12 06:16:29;;;;;;;13.57;6.55;;;16.50;99.90;;;;;;5094079;28;20081;-78
2021/08/12 06:18:54;;;;;;;13.00;6.65;;;16.60;99.90;;;;;;5075095;28;20028;-78
2021/08/12 06:21:22;;;;;;;15.13;7.55;;;16.80;99.90;;;;;;5076487;28;20423;-79
2021/08/12 06:23:47;;;;;;;13.93;7.63;;;16.90;99.90;;;;;;5075836;28;20016;-77
2021/08/12 06:26:13;;;;;;;14.27;6.70;;;17.00;99.90;;;;;;5076002;28;20124;-78
2021/08/12 06:28:39;;;;;;;11.70;6.22;;;17.20;99.90;;;;;;5093972;28;20416;-79
2021/08/12 06:31:04;;;;;;;13.00;6.65;;;17.30;99.90;;;;;;5076104;28;20028;-78
2021/08/12 06:33:30;;;;;;;11.50;5.68;;;17.50;99.90;;;;;;5094095;28;20099;-76
2021/08/12 06:35:55;;;;;;;13.48;6.45;;;17.60;99.90;;;;;;5093382;28;20040;-78
2021/08/12 06:38:21;;;;;;;13.30;6.03;;;17.70;99.90;;;;;;5076007;28;20107;-79
2021/08/12 06:40:46;;;;;;;13.65;6.55;;;17.80;99.90;;;;;;5093910;28;20027;-79
2021/08/12 06:43:13;;;;;;;11.95;5.95;;;17.90;99.90;;;;;;5075548;28;20030;-77
2021/08/12 06:45:39;;;;;;;17.60;7.20;;;18.00;99.90;;;;;;5075235;28;20024;-77
2021/08/12 06:48:05;;;;;;;16.55;7.10;;;18.20;99.90;;;;;;5075749;28;20026;-78
2021/08/12 06:50:31;;;;;;;14.30;6.40;;;18.20;99.90;;;;;;5093535;28;20046;-76
2021/08/12 06:52:56;;;;;;;17.55;6.40;;;18.40;99.90;;;;;;5093144;28;20024;-75
2021/08/12 06:55:22;;;;;;;13.80;6.55;;;18.50;99.90;;;;;;5092991;28;20416;-75
2021/08/12 06:57:48;;;;;;;12.45;5.78;;;18.70;99.90;;;;;;5093178;28;20024;-76
2021/08/12 07:00:14;;;;;;;15.52;6.75;;;18.80;99.90;;;;;;5093260;28;20016;-76
2021/08/12 07:02:40;;;;;;;14.52;6.07;;;19.00;99.90;;;;;;5074814;28;20515;-75
2021/08/12 07:05:06;;;;;;;11.68;5.50;;;19.10;99.90;;;;;;5093574;28;20040;-76
2021/08/12 07:07:32;;;;;;;18.90;6.38;;;19.20;99.90;;;;;;5074900;28;20046;-75
2021/08/12 07:09:57;;;;;;;12.60;5.57;;;19.30;99.90;;;;;;5093263;28;20107;-79
2021/08/12 07:12:23;;;;;;;12.25;6.22;;;19.30;99.90;;;;;;5075235;28;20140;-79
2021/08/12 07:14:49;;;;;;;11.95;5.22;;;19.40;99.90;;;;;;5075522;28;20093;-78
2021/08/12 07:17:14;;;;;;;11.88;5.38;;;19.50;99.90;;;;;;5093959;28;20028;-78
2021/08/12 07:19:40;;;;;;;8.40;4.35;;;19.60;99.90;;;;;;5093235;28;20024;-76
2021/08/12 07:22:06;;;;;;;11.73;5.05;;;19.60;99.90;;;;;;5092977;28;20024;-76
2021/08/12 07:24:31;;;;;;;12.63;4.57;;;19.60;99.90;;;;;;5093080;28;20069;-79
2021/08/12 07:26:57;;;;;;;12.13;4.95;;;19.80;99.90;;;;;;5074925;28;20068;-76
2021/08/12 07:29:24;;;;;;;8.65;3.67;;;19.90;99.90;;;;;;5093668;28;20550;-77
2021/08/12 07:31:50;;;;;;;12.70;3.67;;;19.80;99.90;;;;;;5096836;28;20047;-78
2021/08/12 07:34:16;;;;;;;7.68;3.30;;;19.80;99.90;;;;;;5097093;28;20052;-78
2021/08/12 07:36:42;;;;;;;6.63;3.20;;;19.90;99.90;;;;;;5097442;28;20035;-78
2021/08/12 07:39:07;;;;;;;7.82;3.33;;;20.10;99.90;;;;;;5097545;28;20079;-76
2021/08/12 07:41:34;;;;;;;9.48;3.55;;;20.10;99.90;;;;;;5096758;28;20020;-76
2021/08/12 07:44:04;;;;;;;6.70;2.65;;;20.20;99.90;;;;;;5096444;28;20024;-76
2021/08/12 07:46:30;;;;;;;9.45;3.97;;;20.20;99.90;;;;;;5078448;28;20020;-76
2021/08/12 07:48:56;;;;;;;4.97;2.38;;;20.20;99.90;;;;;;5096611;28;20386;-77
2021/08/12 07:51:23;;;;;;;5.15;2.33;;;20.20;99.90;;;;;;5096592;28;20031;-79
2021/08/12 07:53:55;;;;;;;6.00;2.50;;;20.20;99.90;;;;;;5078935;28;20066;-77
2021/08/12 07:56:21;;;;;;;6.95;1.85;;;20.40;99.90;;;;;;5096637;28;20023;-77
2021/08/12 07:58:47;;;;;;;4.88;2.15;;;20.60;99.90;;;;;;5077907;28;20470;-76
2021/08/12 08:01:15;;;;;;;6.20;2.97;;;20.70;99.90;;;;;;5096144;28;20519;-76
2021/08/12 08:03:41;;;;;;;6.30;2.15;;;20.70;99.90;;;;;;5077906;28;20481;-76
2021/08/12 08:06:07;;;;;;;5.47;1.92;;;20.70;99.90;;;;;;5095997;28;20027;-76
2021/08/12 08:08:32;;;;;;;5.03;1.50;;;20.80;99.90;;;;;;5077793;28;20028;-76
2021/08/12 08:10:58;;;;;;;5.30;1.58;;;20.80;99.90;;;;;;5077700;28;20026;-76
2021/08/12 08:13:23;;;;;;;4.60;1.88;;;21.00;99.90;;;;;;5096152;28;20016;-78
2021/08/12 08:15:49;;;;;;;5.80;1.83;;;21.00;99.90;;;;;;5077929;28;20032;-77
2021/08/12 08:18:14;;;;;;;4.68;0.98;;;21.00;99.90;;;;;;5077521;28;20024;-76
2021/08/12 08:20:40;;;;;;;3.83;1.73;;;21.20;99.90;;;;;;5095671;28;20027;-76
2021/08/12 08:23:08;;;;;;;4.38;1.92;;;21.30;99.90;;;;;;5077696;28;20055;-76
2021/08/12 08:25:34;;;;;;;4.53;2.33;;;21.30;99.90;;;;;;5077939;28;20041;-79
2021/08/12 08:28:03;;;;;;;5.00;1.92;;;21.40;99.90;;;;;;5095962;28;20027;-76
2021/08/12 08:30:31;;;;;;;4.90;2.00;;;21.40;99.90;;;;;;5077384;28;20024;-76
2021/08/12 08:32:56;;;;;;;2.72;1.48;;;22.30;99.90;;;;;;5095728;28;20088;-76
2021/08/12 08:35:25;;;;;;;3.20;1.33;;;21.50;99.90;;;;;;5077300;28;20477;-76
2021/08/12 08:37:51;;;;;;;3.78;1.65;;;21.60;99.90;;;;;;5077535;28;20174;-79
2021/08/12 08:40:16;;;;;;;3.95;1.00;;;21.70;99.90;;;;;;5077216;28;20090;-76
2021/08/12 08:42:45;;;;;;;3.28;1.48;;;21.70;99.90;;;;;;5094868;28;20058;-76
2021/08/12 08:45:11;;;;;;;;;;;21.70;99.90;;;;;;5095722;28;20416;-76
2021/08/12 08:47:39;;;;;;;3.58;1.05;;;21.80;99.90;;;;;;5077266;28;19904;-78
2021/08/12 08:50:06;;;;;;;3.75;1.25;;;22.00;99.90;;;;;;5095526;28;20481;-78
2021/08/12 08:52:31;;;;;;;2.95;1.10;;;22.00;99.90;;;;;;5077369;28;20438;-78
2021/08/12 08:54:57;;;;;;;3.15;1.02;;;21.90;99.90;;;;;;5077353;28;20048;-75
2021/08/12 08:57:23;;;;;;;2.50;0.65;;;21.90;99.90;;;;;;5095011;28;20032;-75
2021/08/12 08:59:49;;;;;;;2.08;0.95;;;21.90;99.90;;;;;;5094956;28;20031;-78
2021/08/12 09:02:14;;;;;;;2.53;0.82;;;22.20;99.90;;;;;;5077338;28;20016;-78
2021/08/12 09:04:40;;;;;;;3.90;0.70;;;22.20;99.90;;;;;;5095702;28;20020;-79
2021/08/12 09:07:10;;;;;;;4.63;1.17;;;22.30;99.90;;;;;;5094812;28;20159;-77
2021/08/12 09:09:37;;;;;;;4.93;1.33;;;22.30;99.90;;;;;;5095111;28;20016;-78
2021/08/12 09:12:04;;;;;;;1.77;0.50;;;22.50;99.90;;;;;;5095217;28;20031;-79
2021/08/12 09:14:35;;;;;;;1.30;0.80;;;22.60;99.90;;;;;;5076928;28;20028;-78
2021/08/12 09:17:19;;;;;;;2.40;0.57;;;22.60;99.90;;;;;;5095063;28;20095;-75
2021/08/12 09:20:10;;;;;;;3.17;0.65;;;22.70;99.90;;;;;;5094806;28;20043;-78
2021/08/12 09:22:51;;;;;;;4.15;0.95;;;22.60;99.90;;;;;;5094483;28;20473;-75
2021/08/12 09:25:33;;;;;;;3.22;0.43;;;22.80;99.90;;;;;;5094960;28;20019;-75
2021/08/12 09:28:29;;;;;;;3.08;0.75;;;22.90;99.90;;;;;;5076698;28;20024;-78
2021/08/12 09:31:00;;;;;;;1.17;0.70;;;22.90;99.60;;;;;;5076485;28;20031;-78
2021/08/12 09:33:27;;;;;;;2.85;0.63;;;22.90;99.90;;;;;;5095464;28;20039;-78
2021/08/12 09:35:53;;;;;;;2.85;0.93;;;23.00;99.90;;;;;;5094941;28;20035;-79
2021/08/12 09:38:21;;;;;;;4.28;0.60;;;23.10;99.90;;;;;;5094878;28;20032;-78
2021/08/12 09:40:58;;;;;;;4.30;0.77;;;23.30;99.70;;;;;;5095035;28;20012;-78
2021/08/12 09:43:30;;;;;;;2.60;0.50;;;23.10;97.60;;;;;;5095245;28;20020;-79
2021/08/12 09:45:56;;;;;;;2.58;0.85;;;23.10;98.40;;;;;;5095103;28;20407;-78
2021/08/12 09:48:23;;;;;;;1.38;0.45;;;23.10;97.60;;;;;;5094733;28;20060;-78
2021/08/12 09:51:06;;;;;;;4.35;0.68;;;23.00;99.40;;;;;;5094584;28;20027;-78
2021/08/12 09:53:33;;;;;;;5.57;0.80;;;23.00;98.30;;;;;;5095083;28;20032;-78
2021/08/12 09:56:09;;;;;;;1.92;0.65;;;23.00;98.60;;;;;;5076282;28;20115;-78
2021/08/12 09:58:36;;;;;;;2.97;0.32;;;23.40;99.30;;;;;;5076657;28;20128;-78
2021/08/12 10:01:21;;;;;;;2.28;0.88;;;23.20;99.90;;;;;;5094960;28;20111;-79
2021/08/12 10:03:49;;;;;;;3.08;0.55;;;23.20;98.80;;;;;;5094615;28;20020;-78
2021/08/12 10:06:20;;;;;;;1.90;0.93;;;23.30;98.20;;;;;;5076467;28;20065;-78
2021/08/12 10:08:46;;;;;;;2.85;0.98;;;23.40;98.90;;;;;;5075920;28;20482;-76
2021/08/12 10:11:27;;;;;;;3.10;0.50;;;23.60;96.60;;;;;;5076061;28;20050;-78
2021/08/12 10:13:59;;;;;;;2.63;0.98;;;23.60;95.10;;;;;;5094398;28;20024;-78
2021/08/12 10:16:30;;;;;;;1.25;0.85;;;23.60;95.70;;;;;;5075826;28;20158;-76
2021/08/12 10:18:56;;;;;;;5.38;0.82;;;23.70;95.40;;;;;;5094281;28;20497;-79
2021/08/12 10:21:23;;;;;;;1.88;0.70;;;23.70;95.70;;;;;;5075978;28;20019;-77
2021/08/12 10:23:50;;;;;;;2.25;0.93;;;23.60;95.60;;;;;;5093976;28;20020;-78
2021/08/12 10:26:20;;;;;;;5.05;0.82;;;23.80;97.50;;;;;;5094034;28;20390;-78
2021/08/12 10:28:48;;;;;;;1.67;0.70;;;23.90;94.20;;;;;;5094063;28;20027;-78
2021/08/12 10:31:21;;;;;;;3.45;0.60;;;23.90;94.60;;;;;;5093990;28;20397;-78
2021/08/12 10:33:48;;;;;;;2.03;0.60;;;23.90;94.90;;;;;;5094167;28;20054;-78
2021/08/12 10:36:16;;;;;;;2.35;0.60;;;24.00;93.40;;;;;;5075165;28;20066;-78
2021/08/12 10:38:42;;;;;;;1.48;0.65;;;23.90;93.50;;;;;;5092704;28;20474;-76
2021/08/12 10:41:08;;;;;;;1.83;0.80;;;23.90;95.70;;;;;;5092768;28;20026;-76
2021/08/12 10:43:35;;;;;;;2.63;0.45;;;24.80;93.60;;;;;;5092323;28;20032;-76
2021/08/12 10:46:02;;;;;;;3.47;0.68;;;24.10;92.90;;;;;;5092621;28;20028;-76
2021/08/12 10:48:29;;;;;;;3.08;0.88;;;24.30;92.60;;;;;;5074355;28;20111;-76
2021/08/12 10:51:02;;;;;;;1.80;0.55;;;24.20;93.90;;;;;;5092398;28;20056;-76
2021/08/12 10:53:27;;;;;;;3.10;0.82;;;24.30;93.70;;;;;;5092528;28;20127;-76
2021/08/12 10:56:02;;;;;;;2.92;0.35;;;24.40;93.00;;;;;;5092398;28;20095;-76
2021/08/12 10:58:30;;;;;;;1.65;0.40;;;24.60;92.90;;;;;;5074102;28;20477;-76
2021/08/12 11:00:56;;;;;;;;;;;24.80;93.50;;;;;;5074579;28;20024;-76
2021/08/12 11:03:34;;;;;;;1.60;0.57;;;24.70;93.00;;;;;;5074075;28;19918;-76
2021/08/12 11:06:11;;;;;;;1.50;0.80;;;24.80;91.30;;;;;;5095201;28;20024;-77
2021/08/12 11:08:56;;;;;;;2.53;0.40;;;24.90;91.80;;;;;;5096568;28;20027;-75
2021/08/12 11:11:25;;;;;;;2.15;0.35;;;25.00;91.40;;;;;;5077485;28;20107;-75
2021/08/12 11:13:51;;;;;;;;;;;24.90;92.70;;;;;;5096308;28;20066;-75
2021/08/12 11:16:18;;;;;;;4.70;1.17;;;24.90;89.70;;;;;;5095622;28;19904;-75
2021/08/12 11:18:49;;;;;;;4.18;0.73;;;25.10;89.60;;;;;;5095673;28;20024;-75
2021/08/12 11:21:30;;;;;;;1.98;0.85;;;25.10;88.60;;;;;;5095458;28;20072;-75
2021/08/12 11:24:24;;;;;;;4.00;1.02;;;25.10;87.70;;;;;;5077398;28;20430;-76
2021/08/12 11:26:50;;;;;;;2.08;0.60;;;25.10;85.70;;;;;;5059285;28;20428;-76
2021/08/12 11:29:22;;;;;;;5.32;0.88;;;25.20;83.80;;;;;;5095358;28;20381;-76
2021/08/12 11:31:47;;;;;;;2.13;0.80;;;25.30;85.50;;;;;;5095339;28;20028;-76
2021/08/12 11:34:21;;;;;;;4.85;0.38;;;25.30;84.70;;;;;;5040523;28;1043806;-76
2021/08/12 11:37:06;;;;;;;2.10;0.45;;;25.20;87.30;;;;;;5096598;28;20038;-76
2021/08/12 11:39:31;;;;;;;1.15;0.30;;;25.00;85.50;;;;;;5096610;28;20055;-76
2021/08/12 11:41:57;;;;;;;3.80;0.57;;;25.10;87.70;;;;;;5096509;28;20016;-76
2021/08/12 11:44:23;;;;;;;1.55;0.20;;;25.10;85.90;;;;;;5096393;28;20477;-76
2021/08/12 11:46:49;;;;;;;3.80;0.30;;;25.00;87.20;;;;;;5096445;28;20028;-76
2021/08/12 11:49:16;;;;;;;2.00;0.82;;;25.20;86.60;;;;;;5096300;28;20020;-76
2021/08/12 11:51:42;;;;;;;4.75;0.70;;;25.70;85.80;;;;;;5096301;28;20030;-77
2021/08/12 11:54:21;;;;;;;4.13;0.40;;;26.10;82.90;;;;;;5078068;28;20120;-76
2021/08/12 11:56:51;;;;;;;4.70;0.70;;;26.10;83.20;;;;;;5078083;28;20119;-76
2021/08/12 11:59:24;;;;;;;1.52;0.43;;;26.40;80.50;;;;;;5096037;28;20028;-76
2021/08/12 12:01:50;;;;;;;3.70;0.63;;;26.70;83.30;;;;;;5096635;28;20056;-76
2021/08/12 12:04:16;;;;;;;2.80;0.57;;;27.10;80.60;;;;;;5096133;28;20024;-76
2021/08/12 12:06:47;;;;;;;1.30;0.40;;;27.20;77.00;;;;;;5096119;28;20020;-76
2021/08/12 12:09:24;;;;;;;1.08;0.40;;;27.40;84.50;;;;;;5077885;28;20494;-76
2021/08/12 12:12:02;;;;;;;0.60;0.38;;;27.50;78.70;;;;;;5096271;28;20024;-76
2021/08/12 12:14:36;;;;;;;2.60;0.30;;;27.90;78.00;;;;;;5096101;28;20051;-78
2021/08/12 12:17:10;;;;;;;2.58;0.43;;;28.30;78.30;;;;;;5096512;28;20062;-78
2021/08/12 12:19:37;;;;;;;2.75;0.90;;;28.30;69.70;;;;;;5096455;28;20051;-78
2021/08/12 12:22:11;;;;;;;1.80;0.68;;;28.20;71.00;;;;;;5078356;28;20520;-78
2021/08/12 12:24:46;;;;;;;0.63;0.20;;;28.50;73.20;;;;;;5078436;28;20355;-78
2021/08/12 12:27:13;;;;;;;0.98;0.20;;;28.30;74.00;;;;;;5078255;28;20046;-79
2021/08/12 12:29:39;;;;;;;1.05;0.38;;;28.00;72.40;;;;;;5096346;28;20101;-79
2021/08/12 12:32:05;;;;;;;2.88;0.82;;;28.20;72.30;;;;;;5096869;28;20141;-79
2021/08/12 12:34:57;;;;;;;1.48;0.30;;;28.70;69.10;;;;;;5096371;28;20032;-78
2021/08/12 12:37:24;;;;;;;1.30;0.45;;;28.40;67.90;;;;;;5095977;28;20043;-78
2021/08/12 12:39:50;;;;;;;1.08;0.25;;;28.30;67.90;;;;;;5095436;28;20032;-76
2021/08/12 12:42:17;;;;;;;2.35;0.50;;;28.20;69.70;;;;;;5077262;28;20465;-77
2021/08/12 12:45:03;;;;;;;0.70;0.30;;;27.80;70.60;;;;;;5095407;28;20016;-76
2021/08/12 12:47:30;;;;;;;2.20;0.20;;;27.90;69.20;;;;;;5095857;28;20020;-78